sensor_id;sensor_type;location;lat;lon;timestamp;pressure;altitude;pressure_sealevel;temperature;humidity
71638;BME280;59485;43.542;-5.676;2023-02-18T00:01:54;102975.06;;;8.29;100.00
71638;BME280;59485;43.542;-5.676;2023-02-18T00:04:20;102975.69;;;8.33;100.00
71638;BME280;59485;43.542;-5.676;2023-02-18T00:06:45;102974.59;;;8.35;100.00
71638;BME280;59485;43.542;-5.676;2023-02-18T00:09:11;102973.59;;;8.36;100.00
71638;BME280;59485;43.542;-5.676;2023-02-18T00:11:36;102975.22;;;8.39;100.00
71638;BME280;59485;43.542;-5.676;2023-02-18T00:14:03;102970.63;;;8.39;100.00
71638;BME280;59485;43.542;-5.676;2023-02-18T00:16:29;102973.47;;;8.38;100.00
71638;BME280;59485;43.542;-5.676;2023-02-18T00:18:55;102964.63;;;8.34;100.00
71638;BME280;59485;43.542;-5.676;2023-02-18T00:21:21;102961.13;;;8.21;100.00
71638;BME280;59485;43.542;-5.676;2023-02-18T00:23:46;102969.34;;;8.32;100.00
71638;BME280;59485;43.542;-5.676;2023-02-18T00:26:13;102971.25;;;8.32;100.00
71638;BME280;59485;43.542;-5.676;2023-02-18T00:28:39;102970.44;;;8.29;100.00
71638;BME280;59485;43.542;-5.676;2023-02-18T00:31:09;102972.31;;;8.29;100.00
71638;BME280;59485;43.542;-5.676;2023-02-18T00:33:35;102972.16;;;8.19;100.00
71638;BME280;59485;43.542;-5.676;2023-02-18T00:36:01;102976.16;;;8.26;100.00
71638;BME280;59485;43.542;-5.676;2023-02-18T00:38:27;102965.94;;;8.17;100.00
71638;BME280;59485;43.542;-5.676;2023-02-18T00:40:52;102970.53;;;8.17;100.00
71638;BME280;59485;43.542;-5.676;2023-02-18T00:43:18;102963.09;;;8.19;100.00
71638;BME280;59485;43.542;-5.676;2023-02-18T00:45:43;102971.28;;;8.19;100.00
71638;BME280;59485;43.542;-5.676;2023-02-18T00:48:08;102965.81;;;8.08;100.00
71638;BME280;59485;43.542;-5.676;2023-02-18T00:50:33;102959.00;;;8.13;100.00
71638;BME280;59485;43.542;-5.676;2023-02-18T00:52:59;102954.25;;;8.04;100.00
71638;BME280;59485;43.542;-5.676;2023-02-18T00:55:24;102952.09;;;7.97;100.00
71638;BME280;59485;43.542;-5.676;2023-02-18T00:57:49;102955.97;;;8.05;100.00
71638;BME280;59485;43.542;-5.676;2023-02-18T01:00:15;102949.78;;;8.03;100.00
71638;BME280;59485;43.542;-5.676;2023-02-18T01:02:40;102950.66;;;8.04;100.00
71638;BME280;59485;43.542;-5.676;2023-02-18T01:05:06;102954.00;;;8.07;100.00
71638;BME280;59485;43.542;-5.676;2023-02-18T01:07:31;102956.13;;;8.04;100.00
71638;BME280;59485;43.542;-5.676;2023-02-18T01:09:56;102959.09;;;8.01;100.00
71638;BME280;59485;43.542;-5.676;2023-02-18T01:12:22;102955.22;;;7.92;100.00
71638;BME280;59485;43.542;-5.676;2023-02-18T01:14:47;102952.25;;;7.95;100.00
71638;BME280;59485;43.542;-5.676;2023-02-18T01:17:12;102951.34;;;7.83;100.00
71638;BME280;59485;43.542;-5.676;2023-02-18T01:19:38;102954.56;;;7.77;100.00
71638;BME280;59485;43.542;-5.676;2023-02-18T01:22:03;102956.56;;;7.86;100.00
71638;BME280;59485;43.542;-5.676;2023-02-18T01:24:30;102959.66;;;7.82;100.00
71638;BME280;59485;43.542;-5.676;2023-02-18T01:26:56;102956.16;;;7.80;100.00
71638;BME280;59485;43.542;-5.676;2023-02-18T01:29:21;102954.13;;;7.71;100.00
71638;BME280;59485;43.542;-5.676;2023-02-18T01:31:46;102946.22;;;7.68;100.00
71638;BME280;59485;43.542;-5.676;2023-02-18T01:34:12;102938.13;;;7.66;100.00
71638;BME280;59485;43.542;-5.676;2023-02-18T01:36:37;102944.47;;;7.67;100.00
71638;BME280;59485;43.542;-5.676;2023-02-18T01:39:04;102943.69;;;7.65;100.00
71638;BME280;59485;43.542;-5.676;2023-02-18T01:41:29;102943.81;;;7.63;100.00
71638;BME280;59485;43.542;-5.676;2023-02-18T01:46:52;102951.38;;;7.60;100.00
71638;BME280;59485;43.542;-5.676;2023-02-18T01:49:20;102936.34;;;7.54;100.00
71638;BME280;59485;43.542;-5.676;2023-02-18T01:51:48;102942.56;;;7.56;100.00
71638;BME280;59485;43.542;-5.676;2023-02-18T01:54:19;102933.38;;;7.57;100.00
71638;BME280;59485;43.542;-5.676;2023-02-18T01:59:15;102928.91;;;7.56;100.00
71638;BME280;59485;43.542;-5.676;2023-02-18T02:01:42;102926.06;;;7.58;100.00
71638;BME280;59485;43.542;-5.676;2023-02-18T02:04:08;102927.53;;;7.50;100.00
71638;BME280;59485;43.542;-5.676;2023-02-18T02:06:40;102929.56;;;7.36;100.00
71638;BME280;59485;43.542;-5.676;2023-02-18T02:09:10;102926.31;;;7.31;100.00
71638;BME280;59485;43.542;-5.676;2023-02-18T02:14:51;102937.44;;;7.28;100.00
71638;BME280;59485;43.542;-5.676;2023-02-18T02:38:34;102925.34;;;7.32;100.00
71638;BME280;59485;43.542;-5.676;2023-02-18T02:54:24;102904.38;;;7.32;100.00
71638;BME280;59485;43.542;-5.676;2023-02-18T02:59:51;102906.16;;;7.44;100.00
71638;BME280;59485;43.542;-5.676;2023-02-18T03:10:23;102893.59;;;7.66;100.00
71638;BME280;59485;43.542;-5.676;2023-02-18T03:15:39;102886.31;;;7.77;100.00
71638;BME280;59485;43.542;-5.676;2023-02-18T03:21:06;102885.59;;;7.86;100.00
71638;BME280;59485;43.542;-5.676;2023-02-18T03:23:31;102878.88;;;7.90;100.00
71638;BME280;59485;43.542;-5.676;2023-02-18T03:25:59;102877.25;;;7.88;100.00
71638;BME280;59485;43.542;-5.676;2023-02-18T03:28:27;102872.91;;;7.85;100.00
71638;BME280;59485;43.542;-5.676;2023-02-18T03:30:57;102872.66;;;7.88;100.00
71638;BME280;59485;43.542;-5.676;2023-02-18T03:33:30;102876.13;;;7.90;100.00
71638;BME280;59485;43.542;-5.676;2023-02-18T03:35:57;102869.94;;;7.88;100.00
71638;BME280;59485;43.542;-5.676;2023-02-18T03:38:25;102877.63;;;7.83;100.00
71638;BME280;59485;43.542;-5.676;2023-02-18T03:40:53;102870.16;;;7.74;100.00
71638;BME280;59485;43.542;-5.676;2023-02-18T03:43:19;102869.13;;;7.64;100.00
71638;BME280;59485;43.542;-5.676;2023-02-18T03:45:44;102876.81;;;7.59;100.00
71638;BME280;59485;43.542;-5.676;2023-02-18T03:48:10;102872.84;;;7.63;100.00
71638;BME280;59485;43.542;-5.676;2023-02-18T03:53:29;102868.88;;;7.56;100.00
71638;BME280;59485;43.542;-5.676;2023-02-18T03:55:54;102862.53;;;7.56;100.00
71638;BME280;59485;43.542;-5.676;2023-02-18T04:00:55;102868.09;;;7.54;100.00
71638;BME280;59485;43.542;-5.676;2023-02-18T04:03:20;102864.16;;;7.58;100.00
71638;BME280;59485;43.542;-5.676;2023-02-18T04:05:46;102868.38;;;7.62;100.00
71638;BME280;59485;43.542;-5.676;2023-02-18T04:08:12;102860.94;;;7.64;100.00
71638;BME280;59485;43.542;-5.676;2023-02-18T04:10:37;102867.16;;;7.66;100.00
71638;BME280;59485;43.542;-5.676;2023-02-18T04:13:02;102868.16;;;7.65;100.00
71638;BME280;59485;43.542;-5.676;2023-02-18T04:15:28;102870.88;;;7.65;100.00
71638;BME280;59485;43.542;-5.676;2023-02-18T04:17:53;102861.94;;;7.63;100.00
71638;BME280;59485;43.542;-5.676;2023-02-18T04:20:19;102867.16;;;7.66;100.00
71638;BME280;59485;43.542;-5.676;2023-02-18T04:25:19;102867.91;;;7.68;100.00
71638;BME280;59485;43.542;-5.676;2023-02-18T04:27:45;102870.38;;;7.71;100.00
71638;BME280;59485;43.542;-5.676;2023-02-18T04:30:10;102870.16;;;7.74;100.00
71638;BME280;59485;43.542;-5.676;2023-02-18T04:32:35;102864.31;;;7.79;100.00
71638;BME280;59485;43.542;-5.676;2023-02-18T04:35:01;102869.56;;;7.82;100.00
71638;BME280;59485;43.542;-5.676;2023-02-18T04:37:26;102872.06;;;7.85;100.00
71638;BME280;59485;43.542;-5.676;2023-02-18T04:42:37;102868.06;;;7.89;100.00
71638;BME280;59485;43.542;-5.676;2023-02-18T04:45:03;102875.28;;;7.90;100.00
71638;BME280;59485;43.542;-5.676;2023-02-18T04:47:28;102874.16;;;7.93;100.00
71638;BME280;59485;43.542;-5.676;2023-02-18T04:49:53;102871.31;;;7.94;100.00
71638;BME280;59485;43.542;-5.676;2023-02-18T04:52:19;102872.81;;;7.98;100.00
71638;BME280;59485;43.542;-5.676;2023-02-18T04:54:44;102862.75;;;7.99;100.00
71638;BME280;59485;43.542;-5.676;2023-02-18T04:57:10;102869.59;;;8.04;100.00
71638;BME280;59485;43.542;-5.676;2023-02-18T04:59:35;102864.38;;;8.01;100.00
71638;BME280;59485;43.542;-5.676;2023-02-18T05:02:01;102868.22;;;8.10;100.00
71638;BME280;59485;43.542;-5.676;2023-02-18T05:04:26;102866.25;;;8.12;100.00
71638;BME280;59485;43.542;-5.676;2023-02-18T05:06:52;102867.25;;;8.11;100.00
71638;BME280;59485;43.542;-5.676;2023-02-18T05:11:59;102865.38;;;8.11;100.00
71638;BME280;59485;43.542;-5.676;2023-02-18T05:14:25;102864.88;;;8.17;100.00
71638;BME280;59485;43.542;-5.676;2023-02-18T05:16:50;102865.97;;;8.15;100.00
71638;BME280;59485;43.542;-5.676;2023-02-18T05:21:41;102859.28;;;8.08;100.00
71638;BME280;59485;43.542;-5.676;2023-02-18T05:24:06;102866.25;;;8.12;100.00
71638;BME280;59485;43.542;-5.676;2023-02-18T05:26:32;102869.59;;;8.15;100.00
71638;BME280;59485;43.542;-5.676;2023-02-18T05:28:58;102865.50;;;8.10;100.00
71638;BME280;59485;43.542;-5.676;2023-02-18T05:33:53;102865.84;;;8.05;100.00
71638;BME280;59485;43.542;-5.676;2023-02-18T05:36:18;102868.22;;;8.10;100.00
71638;BME280;59485;43.542;-5.676;2023-02-18T05:38:43;102871.19;;;8.07;100.00
71638;BME280;59485;43.542;-5.676;2023-02-18T05:41:09;102868.56;;;8.05;100.00
71638;BME280;59485;43.542;-5.676;2023-02-18T05:46:05;102867.75;;;8.05;100.00
71638;BME280;59485;43.542;-5.676;2023-02-18T05:48:30;102861.53;;;8.03;100.00
71638;BME280;59485;43.542;-5.676;2023-02-18T05:50:55;102870.47;;;8.05;100.00
71638;BME280;59485;43.542;-5.676;2023-02-18T05:53:21;102866.00;;;8.04;100.00
71638;BME280;59485;43.542;-5.676;2023-02-18T05:55:49;102862.50;;;8.02;100.00
71638;BME280;59485;43.542;-5.676;2023-02-18T05:58:14;102864.25;;;8.03;100.00
71638;BME280;59485;43.542;-5.676;2023-02-18T06:03:25;102860.41;;;7.94;100.00
71638;BME280;59485;43.542;-5.676;2023-02-18T06:05:51;102866.22;;;7.89;100.00
71638;BME280;59485;43.542;-5.676;2023-02-18T06:08:16;102870.19;;;7.85;100.00
71638;BME280;59485;43.542;-5.676;2023-02-18T06:10:44;102861.25;;;7.83;100.00
71638;BME280;59485;43.542;-5.676;2023-02-18T06:13:09;102853.06;;;7.83;100.00
71638;BME280;59485;43.542;-5.676;2023-02-18T06:15:34;102858.41;;;7.85;100.00
71638;BME280;59485;43.542;-5.676;2023-02-18T06:18:00;102861.13;;;7.85;100.00
71638;BME280;59485;43.542;-5.676;2023-02-18T06:20:25;102864.84;;;7.84;100.00
71638;BME280;59485;43.542;-5.676;2023-02-18T06:22:50;102863.97;;;7.83;100.00
71638;BME280;59485;43.542;-5.676;2023-02-18T06:25:16;102862.47;;;7.79;100.00
71638;BME280;59485;43.542;-5.676;2023-02-18T06:30:11;102862.84;;;7.75;100.00
71638;BME280;59485;43.542;-5.676;2023-02-18T06:32:36;102864.06;;;7.71;100.00
71638;BME280;59485;43.542;-5.676;2023-02-18T06:35:02;102858.88;;;7.68;100.00
71638;BME280;59485;43.542;-5.676;2023-02-18T06:37:27;102861.06;;;7.63;100.00
71638;BME280;59485;43.542;-5.676;2023-02-18T06:45:50;102865.91;;;7.59;100.00
71638;BME280;59485;43.542;-5.676;2023-02-18T06:54:06;102870.09;;;7.52;100.00
71638;BME280;59485;43.542;-5.676;2023-02-18T06:56:32;102872.09;;;7.50;100.00
71638;BME280;59485;43.542;-5.676;2023-02-18T06:58:57;102871.56;;;7.45;100.00
71638;BME280;59485;43.542;-5.676;2023-02-18T07:01:23;102868.06;;;7.43;100.00
71638;BME280;59485;43.542;-5.676;2023-02-18T07:03:48;102868.22;;;7.41;100.00
71638;BME280;59485;43.542;-5.676;2023-02-18T07:06:13;102870.78;;;7.43;100.00
71638;BME280;59485;43.542;-5.676;2023-02-18T07:08:39;102864.72;;;7.39;100.00
71638;BME280;59485;43.542;-5.676;2023-02-18T07:11:06;102868.22;;;7.41;100.00
71638;BME280;59485;43.542;-5.676;2023-02-18T07:13:32;102866.47;;;7.40;100.00
71638;BME280;59485;43.542;-5.676;2023-02-18T07:15:57;102866.81;;;7.36;100.00
71638;BME280;59485;43.542;-5.676;2023-02-18T07:18:23;102874.38;;;7.32;100.00
71638;BME280;59485;43.542;-5.676;2023-02-18T07:20:48;102878.09;;;7.31;100.00
71638;BME280;59485;43.542;-5.676;2023-02-18T07:23:13;102878.19;;;7.30;100.00
71638;BME280;59485;43.542;-5.676;2023-02-18T07:25:39;102883.53;;;7.31;100.00
71638;BME280;59485;43.542;-5.676;2023-02-18T07:28:04;102883.88;;;7.27;100.00
71638;BME280;59485;43.542;-5.676;2023-02-18T07:30:30;102888.59;;;7.25;100.00
71638;BME280;59485;43.542;-5.676;2023-02-18T07:32:55;102885.13;;;7.23;100.00
71638;BME280;59485;43.542;-5.676;2023-02-18T07:35:20;102886.97;;;7.22;100.00
71638;BME280;59485;43.542;-5.676;2023-02-18T07:37:47;102888.81;;;7.22;100.00
71638;BME280;59485;43.542;-5.676;2023-02-18T07:40:13;102886.97;;;7.22;100.00
71638;BME280;59485;43.542;-5.676;2023-02-18T07:42:39;102893.41;;;7.21;100.00
71638;BME280;59485;43.542;-5.676;2023-02-18T07:45:04;102898.88;;;7.21;100.00
71638;BME280;59485;43.542;-5.676;2023-02-18T07:47:30;102903.44;;;7.21;100.00
71638;BME280;59485;43.542;-5.676;2023-02-18T07:49:55;102905.19;;;7.22;100.00
71638;BME280;59485;43.542;-5.676;2023-02-18T07:52:21;102908.91;;;7.21;100.00
71638;BME280;59485;43.542;-5.676;2023-02-18T07:54:46;102910.66;;;7.22;100.00
71638;BME280;59485;43.542;-5.676;2023-02-18T07:57:11;102922.31;;;7.24;100.00
71638;BME280;59485;43.542;-5.676;2023-02-18T07:59:37;102919.59;;;7.24;100.00
71638;BME280;59485;43.542;-5.676;2023-02-18T08:02:03;102920.00;;;7.30;100.00
71638;BME280;59485;43.542;-5.676;2023-02-18T08:04:29;102916.91;;;7.35;100.00
71638;BME280;59485;43.542;-5.676;2023-02-18T08:06:57;102918.19;;;7.42;100.00
71638;BME280;59485;43.542;-5.676;2023-02-18T08:09:26;102920.91;;;7.42;100.00
71638;BME280;59485;43.542;-5.676;2023-02-18T08:11:51;102922.00;;;7.39;100.00
71638;BME280;59485;43.542;-5.676;2023-02-18T08:14:16;102924.16;;;7.47;100.00
71638;BME280;59485;43.542;-5.676;2023-02-18T08:16:42;102925.78;;;7.49;100.00
71638;BME280;59485;43.542;-5.676;2023-02-18T08:19:08;102930.75;;;7.56;100.00
71638;BME280;59485;43.542;-5.676;2023-02-18T08:21:33;102928.78;;;7.58;100.00
71638;BME280;59485;43.542;-5.676;2023-02-18T08:23:59;102923.34;;;7.58;100.00
71638;BME280;59485;43.542;-5.676;2023-02-18T08:26:30;102930.53;;;7.59;100.00
71638;BME280;59485;43.542;-5.676;2023-02-18T08:28:55;102931.16;;;7.62;100.00
71638;BME280;59485;43.542;-5.676;2023-02-18T08:31:24;102933.78;;;7.64;100.00
71638;BME280;59485;43.542;-5.676;2023-02-18T08:33:50;102934.63;;;7.64;100.00
71638;BME280;59485;43.542;-5.676;2023-02-18T08:36:16;102939.00;;;7.67;100.00
71638;BME280;59485;43.542;-5.676;2023-02-18T08:38:42;102939.63;;;7.70;100.00
71638;BME280;59485;43.542;-5.676;2023-02-18T08:41:07;102940.75;;;7.79;100.00
71638;BME280;59485;43.542;-5.676;2023-02-18T08:43:33;102941.53;;;7.81;100.00
71638;BME280;59485;43.542;-5.676;2023-02-18T08:45:58;102941.19;;;7.85;100.00
71638;BME280;59485;43.542;-5.676;2023-02-18T08:48:30;102937.97;;;7.91;100.00
71638;BME280;59485;43.542;-5.676;2023-02-18T08:50:56;102941.81;;;8.00;100.00
71638;BME280;59485;43.542;-5.676;2023-02-18T08:53:21;102940.72;;;8.03;100.00
71638;BME280;59485;43.542;-5.676;2023-02-18T08:55:50;102938.50;;;8.08;100.00
71638;BME280;59485;43.542;-5.676;2023-02-18T08:58:16;102945.94;;;8.17;100.00
71638;BME280;59485;43.542;-5.676;2023-02-18T09:00:42;102950.81;;;8.24;100.00
71638;BME280;59485;43.542;-5.676;2023-02-18T09:03:09;102949.81;;;8.25;100.00
71638;BME280;59485;43.542;-5.676;2023-02-18T09:05:36;102945.50;;;8.34;100.00
71638;BME280;59485;43.542;-5.676;2023-02-18T09:08:03;102944.41;;;8.37;100.00
71638;BME280;59485;43.542;-5.676;2023-02-18T09:10:28;102952.97;;;8.43;100.00
71638;BME280;59485;43.542;-5.676;2023-02-18T09:12:53;102952.34;;;8.51;100.00
71638;BME280;59485;43.542;-5.676;2023-02-18T09:15:19;102946.28;;;8.58;100.00
71638;BME280;59485;43.542;-5.676;2023-02-18T09:17:47;102951.50;;;8.61;100.00
71638;BME280;59485;43.542;-5.676;2023-02-18T09:20:13;102953.25;;;8.62;100.00
71638;BME280;59485;43.542;-5.676;2023-02-18T09:22:38;102945.66;;;8.66;100.00
71638;BME280;59485;43.542;-5.676;2023-02-18T09:25:04;102950.28;;;8.77;100.00
71638;BME280;59485;43.542;-5.676;2023-02-18T09:27:29;102950.13;;;8.78;100.00
71638;BME280;59485;43.542;-5.676;2023-02-18T09:29:55;102956.69;;;8.87;100.00
71638;BME280;59485;43.542;-5.676;2023-02-18T09:32:20;102958.84;;;8.94;100.00
71638;BME280;59485;43.542;-5.676;2023-02-18T09:34:45;102948.47;;;8.98;100.00
71638;BME280;59485;43.542;-5.676;2023-02-18T09:37:11;102952.31;;;9.07;100.00
71638;BME280;59485;43.542;-5.676;2023-02-18T09:39:36;102951.09;;;9.11;100.00
71638;BME280;59485;43.542;-5.676;2023-02-18T09:42:03;102951.69;;;9.14;100.00
71638;BME280;59485;43.542;-5.676;2023-02-18T09:46:59;102948.94;;;9.25;100.00
71638;BME280;59485;43.542;-5.676;2023-02-18T09:49:28;102950.16;;;9.32;100.00
71638;BME280;59485;43.542;-5.676;2023-02-18T09:51:54;102949.66;;;9.38;100.00
71638;BME280;59485;43.542;-5.676;2023-02-18T09:54:20;102951.63;;;9.48;100.00
71638;BME280;59485;43.542;-5.676;2023-02-18T09:56:46;102954.06;;;9.51;100.00
71638;BME280;59485;43.542;-5.676;2023-02-18T09:59:14;102956.03;;;9.60;100.00
71638;BME280;59485;43.542;-5.676;2023-02-18T10:01:41;102958.25;;;9.66;100.00
71638;BME280;59485;43.542;-5.676;2023-02-18T10:04:26;102959.34;;;9.74;100.00
71638;BME280;59485;43.542;-5.676;2023-02-18T10:06:54;102960.13;;;9.86;100.00
71638;BME280;59485;43.542;-5.676;2023-02-18T10:11:50;102958.28;;;10.07;100.00
71638;BME280;59485;43.542;-5.676;2023-02-18T10:14:16;102953.66;;;10.19;100.00
71638;BME280;59485;43.542;-5.676;2023-02-18T10:16:43;102959.78;;;10.32;100.00
71638;BME280;59485;43.542;-5.676;2023-02-18T10:21:34;102951.59;;;10.42;100.00
71638;BME280;59485;43.542;-5.676;2023-02-18T10:24:09;102950.53;;;10.54;100.00
71638;BME280;59485;43.542;-5.676;2023-02-18T10:26:40;102951.44;;;10.64;100.00
71638;BME280;59485;43.542;-5.676;2023-02-18T10:29:12;102949.44;;;10.76;100.00
71638;BME280;59485;43.542;-5.676;2023-02-18T10:31:39;102953.97;;;10.86;100.00
71638;BME280;59485;43.542;-5.676;2023-02-18T10:36:46;102941.75;;;11.10;100.00
71638;BME280;59485;43.542;-5.676;2023-02-18T10:46:58;102928.25;;;11.56;100.00
71638;BME280;59485;43.542;-5.676;2023-02-18T10:49:32;102926.22;;;11.68;100.00
71638;BME280;59485;43.542;-5.676;2023-02-18T10:52:01;102919.44;;;11.82;100.00
71638;BME280;59485;43.542;-5.676;2023-02-18T10:54:27;102921.91;;;11.94;100.00
71638;BME280;59485;43.542;-5.676;2023-02-18T10:57:14;102918.88;;;12.07;100.00
71638;BME280;59485;43.542;-5.676;2023-02-18T10:59:44;102918.66;;;12.18;100.00
71638;BME280;59485;43.542;-5.676;2023-02-18T11:02:17;102918.22;;;12.32;100.00
71638;BME280;59485;43.542;-5.676;2023-02-18T11:04:44;102920.19;;;12.50;100.00
71638;BME280;59485;43.542;-5.676;2023-02-18T11:07:13;102920.69;;;12.63;100.00
71638;BME280;59485;43.542;-5.676;2023-02-18T11:09:40;102919.63;;;12.73;100.00
71638;BME280;59485;43.542;-5.676;2023-02-18T11:14:45;102914.28;;;12.99;100.00
71638;BME280;59485;43.542;-5.676;2023-02-18T11:17:21;102911.47;;;13.09;100.00
71638;BME280;59485;43.542;-5.676;2023-02-18T11:19:54;102915.38;;;13.16;100.00
71638;BME280;59485;43.542;-5.676;2023-02-18T11:22:30;102912.78;;;13.14;100.00
71638;BME280;59485;43.542;-5.676;2023-02-18T11:24:58;102913.47;;;13.17;100.00
71638;BME280;59485;43.542;-5.676;2023-02-18T11:30:03;102907.03;;;13.26;100.00
71638;BME280;59485;43.542;-5.676;2023-02-18T11:32:30;102906.88;;;13.27;100.00
71638;BME280;59485;43.542;-5.676;2023-02-18T11:34:58;102912.53;;;13.26;100.00
71638;BME280;59485;43.542;-5.676;2023-02-18T11:37:23;102908.31;;;13.31;100.00
71638;BME280;59485;43.542;-5.676;2023-02-18T11:39:49;102899.34;;;13.29;100.00
71638;BME280;59485;43.542;-5.676;2023-02-18T11:42:17;102896.75;;;13.28;100.00
71638;BME280;59485;43.542;-5.676;2023-02-18T11:44:50;102893.97;;;13.28;100.00
71638;BME280;59485;43.542;-5.676;2023-02-18T11:47:19;102888.31;;;13.29;100.00
71638;BME280;59485;43.542;-5.676;2023-02-18T11:49:58;102894.13;;;13.26;100.00
71638;BME280;59485;43.542;-5.676;2023-02-18T11:52:25;102891.22;;;13.28;100.00
71638;BME280;59485;43.542;-5.676;2023-02-18T11:54:58;102892.09;;;13.28;100.00
71638;BME280;59485;43.542;-5.676;2023-02-18T11:57:24;102890.22;;;13.29;100.00
71638;BME280;59485;43.542;-5.676;2023-02-18T11:59:51;102888.78;;;13.25;100.00
71638;BME280;59485;43.542;-5.676;2023-02-18T12:02:26;102880.22;;;13.28;100.00
71638;BME280;59485;43.542;-5.676;2023-02-18T12:07:26;102879.34;;;13.27;100.00
71638;BME280;59485;43.542;-5.676;2023-02-18T12:09:57;102886.34;;;13.22;100.00
71638;BME280;59485;43.542;-5.676;2023-02-18T12:14:53;102885.34;;;13.23;100.00
71638;BME280;59485;43.542;-5.676;2023-02-18T12:25:01;102871.00;;;13.19;100.00
71638;BME280;59485;43.542;-5.676;2023-02-18T12:35:18;102872.16;;;13.17;100.00
71638;BME280;59485;43.542;-5.676;2023-02-18T12:55:56;102856.41;;;13.09;100.00
71638;BME280;59485;43.542;-5.676;2023-02-18T13:03:54;102853.41;;;13.02;100.00
71638;BME280;59485;43.542;-5.676;2023-02-18T13:11:46;102848.63;;;13.04;100.00
71638;BME280;59485;43.542;-5.676;2023-02-18T13:14:23;102845.53;;;13.07;100.00
71638;BME280;59485;43.542;-5.676;2023-02-18T13:16:54;102849.31;;;13.06;100.00
71638;BME280;59485;43.542;-5.676;2023-02-18T13:21:49;102841.75;;;13.08;100.00
71638;BME280;59485;43.542;-5.676;2023-02-18T13:26:51;102837.28;;;13.07;100.00
71638;BME280;59485;43.542;-5.676;2023-02-18T13:29:38;102844.84;;;13.05;100.00
71638;BME280;59485;43.542;-5.676;2023-02-18T13:37:25;102843.63;;;13.18;100.00
71638;BME280;59485;43.542;-5.676;2023-02-18T13:39:55;102844.31;;;13.20;100.00
71638;BME280;59485;43.542;-5.676;2023-02-18T13:47:37;102824.41;;;13.26;100.00
71638;BME280;59485;43.542;-5.676;2023-02-18T13:52:49;102812.50;;;13.43;100.00
71638;BME280;59485;43.542;-5.676;2023-02-18T13:55:20;102809.81;;;13.51;100.00
71638;BME280;59485;43.542;-5.676;2023-02-18T13:57:47;102804.72;;;13.56;100.00
71638;BME280;59485;43.542;-5.676;2023-02-18T14:00:24;102798.19;;;13.57;100.00
71638;BME280;59485;43.542;-5.676;2023-02-18T14:02:57;102800.78;;;13.59;100.00
71638;BME280;59485;43.542;-5.676;2023-02-18T14:05:24;102796.13;;;13.59;100.00
71638;BME280;59485;43.542;-5.676;2023-02-18T14:10:36;102799.81;;;13.68;100.00
71638;BME280;59485;43.542;-5.676;2023-02-18T14:13:17;102794.50;;;13.74;100.00
71638;BME280;59485;43.542;-5.676;2023-02-18T14:15:57;102794.22;;;13.77;100.00
71638;BME280;59485;43.542;-5.676;2023-02-18T14:18:31;102793.53;;;13.83;100.00
71638;BME280;59485;43.542;-5.676;2023-02-18T14:26:42;102782.53;;;14.17;100.00
71638;BME280;59485;43.542;-5.676;2023-02-18T14:29:13;102783.75;;;14.23;100.00
71638;BME280;59485;43.542;-5.676;2023-02-18T14:41:51;102775.28;;;14.50;100.00
71638;BME280;59485;43.542;-5.676;2023-02-18T14:51:55;102774.94;;;14.11;100.00
71638;BME280;59485;43.542;-5.676;2023-02-18T14:54:22;102774.69;;;14.05;100.00
71638;BME280;59485;43.542;-5.676;2023-02-18T14:56:58;102768.50;;;14.03;100.00
71638;BME280;59485;43.542;-5.676;2023-02-18T14:59:25;102772.72;;;13.89;100.00
71638;BME280;59485;43.542;-5.676;2023-02-18T15:01:53;102773.44;;;13.91;100.00
71638;BME280;59485;43.542;-5.676;2023-02-18T15:04:19;102774.97;;;13.85;100.00
71638;BME280;59485;43.542;-5.676;2023-02-18T15:06:44;102776.13;;;13.83;100.00
71638;BME280;59485;43.542;-5.676;2023-02-18T15:09:14;102771.34;;;13.85;100.00
71638;BME280;59485;43.542;-5.676;2023-02-18T15:11:43;102773.53;;;13.81;100.00
71638;BME280;59485;43.542;-5.676;2023-02-18T15:14:11;102770.47;;;13.84;100.00
71638;BME280;59485;43.542;-5.676;2023-02-18T15:16:38;102772.78;;;13.71;100.00
71638;BME280;59485;43.542;-5.676;2023-02-18T15:19:05;102777.81;;;13.76;100.00
71638;BME280;59485;43.542;-5.676;2023-02-18T15:21:41;102774.56;;;13.80;100.00
71638;BME280;59485;43.542;-5.676;2023-02-18T15:24:30;102777.31;;;13.80;100.00
71638;BME280;59485;43.542;-5.676;2023-02-18T15:26:54;102777.72;;;13.85;100.00
71638;BME280;59485;43.542;-5.676;2023-02-18T15:29:21;102776.03;;;13.93;100.00
71638;BME280;59485;43.542;-5.676;2023-02-18T15:34:29;102767.44;;;13.96;100.00
71638;BME280;59485;43.542;-5.676;2023-02-18T15:36:58;102772.31;;;14.10;100.00
71638;BME280;59485;43.542;-5.676;2023-02-18T15:39:24;102777.53;;;14.13;100.00
71638;BME280;59485;43.542;-5.676;2023-02-18T15:49:16;102769.34;;;14.37;100.00
71638;BME280;59485;43.542;-5.676;2023-02-18T15:51:46;102766.56;;;14.29;100.00
71638;BME280;59485;43.542;-5.676;2023-02-18T15:54:19;102765.84;;;14.27;100.00
71638;BME280;59485;43.542;-5.676;2023-02-18T15:56:48;102765.53;;;14.30;100.00
71638;BME280;59485;43.542;-5.676;2023-02-18T15:59:18;102759.63;;;14.25;100.00
71638;BME280;59485;43.542;-5.676;2023-02-18T16:01:48;102763.41;;;14.24;100.00
71638;BME280;59485;43.542;-5.676;2023-02-18T16:04:14;102756.84;;;14.17;100.00
71638;BME280;59485;43.542;-5.676;2023-02-18T16:06:44;102758.69;;;14.08;100.00
71638;BME280;59485;43.542;-5.676;2023-02-18T16:09:14;102761.97;;;14.04;100.00
71638;BME280;59485;43.542;-5.676;2023-02-18T16:11:44;102756.03;;;13.90;100.00
71638;BME280;59485;43.542;-5.676;2023-02-18T16:14:22;102762.09;;;13.94;100.00
71638;BME280;59485;43.542;-5.676;2023-02-18T16:16:56;102768.56;;;13.85;100.00
71638;BME280;59485;43.542;-5.676;2023-02-18T16:19:24;102771.66;;;13.82;100.00
71638;BME280;59485;43.542;-5.676;2023-02-18T16:21:49;102771.09;;;13.78;100.00
71638;BME280;59485;43.542;-5.676;2023-02-18T16:24:28;102771.38;;;13.67;100.00